Main page
METAR-TAF:

METAR-TAF

Airports :

Donegal Airport

Donegal, Ireland

latitude: 55-02-39N, longitude: 8-20-28W, elevation: 9 m

Current weather observation

The report was made 1 hour and 32 minutes ago, at 18:30 UTC
Wind 19 kt from the Northwest
Temperature 14°C
Humidity 88%
Pressure 1004 hPa
Visibility 10 km or more
Broken clouds at a height of 2000 ft
light rain

METAR: EIDL 281830Z 32019KT 9999 -RA BKN020 14/12 Q1004

Time: 21:02 (20:02 UTC)

Forecast

The report was made 3 hours and 2 minutes ago, at 17:00 UTC
Forecast valid from 28 at 18 UTC to 29 at 03 UTC
Wind 18 kt from the Northwest with gusts up to 28 kt
Visibility 10 km or more
Scattered clouds at a height of 2000 ft

TAF: EIDL 281700Z 2818/2903 32018G28KT 9999 SCT020

Weather observations and forecasts of more than 4000 airports (METAR and TAF reports).

The available stations are represented by yellow and red dots on the map.

Hover mouse over dot to see the name of the station.

Then click to see weather observations and forecasts.

To change the map : click on the green buttons with a black cross to zoom in, on the green button with a dash to zoom out, or on the green arrows for adjacent maps.


METAR-TAF: